Colfax, WA (99111)

1:02 AM PST on February 09, 2016 (GMT -0800)
Barclay Ridge | | Change Station
CLOSE
Current Station
Personal Weather Station
Location: Pullman, WA
Elevation: 2644 ft
Nearby Weather Stations

Elev 2644 ft 46.73 °N, 117.21 °W | Updated 9 minutes ago

Clear
Clear
39.6 °F
Feels Like 32 °F
N
14.0
Wind Variable Wind from ENE

Today
High -- | Low -- °F
--% Chance of Precip.
Yesterday
High -- | Low -- °F
Precip. -- in
Pressure 30.51 in
Visibility 10.0 miles
Clouds Clear
Windchill 32 °F
Dew Point 34 °F
Humidity 80%
Rainfall 0.00 in
Snow Depth Not available.
7:03 AM 5:04 PM
New Moon, 1% visible
METAR KPUW 090853Z AUTO 08007KT 10SM CLR 05/00 A3048 RMK AO2 SLP332 T00500000 58008
Pressure 30.51 in
Visibility 10.0 miles
Clouds Clear
Windchill 32 °F
Dew Point 34 °F
Humidity 80%
Rainfall 0.00 in
Snow Depth Not available.
7:03 AM 5:04 PM
New Moon, 1% visible
METAR KPUW 090853Z AUTO 08007KT 10SM CLR 05/00 A3048 RMK AO2 SLP332 T00500000 58008

10-Day Weather Forecast

Almanac

Astronomy

Feb. 09, 2016 Rise Set
Actual Time
Civil Twilight
Nautical Twilight
Astronomical Twilight
Moon
Length of Visible Light
Length of Day
Tomorrow will be .
, % of the Moon is Illuminated

Today's Extremes

State Highs State Lows

Community

WunderPhotos

Upload Photos

1,891,571 photos uploaded!

WunderBlog® & News

Nearby

Air Quality

  Air Quality AQ Index Pollutant
Not available.

Snow Depth

Station Depth Elevation

Earthquake Activity

City Distance Mag. Time & Date
Minimum magnitude displayed is 2.5.

Coastal Water Temperatures

Place Temperature

Stations

Nearby Weather Stations

Station Location Temp. Windchill Dew Point Humidity Wind Precip. Elev Updated Type
                   

Watches & Warnings

There are currently no watches in effect.